Kezdőlap
METAR-TAF:

METAR-TAF

Repülőterek :

Khon Kaen, Thaiföld

földrajzi szélesség: 16-26N, földrajzi hosszúság: 102-50E, magasság: 165 m

Jelenlegi meteorológiai megfigyelések

A jelentés 44 perccel ezelõtt készült, 17:00 UTC
Különbözõ irányokból fújó szél 1 kt
Hőmérséklet 31°C
Páratartalom 52%
Légköri nyomás 1005 hPa
Látótávolság 10 km, vagy több
felhőtlen 1500 m magasságban, és nincs gomolyfelhõ

METAR: VTUK 231700Z VRB01KT CAVOK 31/20 Q1005 NOSIG

Idő: 00:44 (17:44 UTC)

Előrejelzés

A jelentés 6 órával és 44 perccel ezelõtt készült, 11:00 UTC
Az előrejelzés 23-én 12 óra UTC és 24-én 12 óra UTC között érvényes
Dél-délnyugati szél 5 kt
Látótávolság: 8000 m

TAF: VTUK 231100Z 2312/2412 20005KT 8000 NSC

Meteorológiai megfigyelések és előrejelzések több, mint 4000 repülőtéren (METAR és TAF jelentéseket).

A térképen piros és sárga pontok jelzik az elérhető meteorológiai állomásokat.

Mozgassa az egeret a pont fölött, hogy megjelenjen az állomás neve.

Azután kattintson az időjárási megfigyelések és előrejelzések megtekintéséhez.

A térkép megváltoztatása: kattintson a fekete keresztel jelölt zöld gombra ráközelítéshez, a vonallal jelölt zöld gombra távolításhoz, vagy a zöld nyilakra a szomszédos térképek eléréséhez.


METAR-TAF: